sensor_id;sensor_type;location;lat;lon;timestamp;P1;durP1;ratioP1;P2;durP2;ratioP2
45358;SDS011;31096;49.292;8.710;2022-11-20T00:02:20;10.40;;;5.13;;
45358;SDS011;31096;49.292;8.710;2022-11-20T00:07:11;11.57;;;5.77;;
45358;SDS011;31096;49.292;8.710;2022-11-20T00:12:01;10.77;;;5.67;;
45358;SDS011;31096;49.292;8.710;2022-11-20T00:16:52;11.30;;;5.35;;
45358;SDS011;31096;49.292;8.710;2022-11-20T00:21:43;11.03;;;6.00;;
45358;SDS011;31096;49.292;8.710;2022-11-20T00:26:33;10.90;;;5.67;;
45358;SDS011;31096;49.292;8.710;2022-11-20T00:31:24;11.13;;;5.25;;
45358;SDS011;31096;49.292;8.710;2022-11-20T00:36:16;10.70;;;5.53;;
45358;SDS011;31096;49.292;8.710;2022-11-20T00:41:14;10.80;;;5.75;;
45358;SDS011;31096;49.292;8.710;2022-11-20T00:46:15;9.87;;;5.37;;
45358;SDS011;31096;49.292;8.710;2022-11-20T00:51:08;11.52;;;5.72;;
45358;SDS011;31096;49.292;8.710;2022-11-20T00:56:00;9.43;;;5.57;;
45358;SDS011;31096;49.292;8.710;2022-11-20T01:00:53;10.73;;;5.07;;
45358;SDS011;31096;49.292;8.710;2022-11-20T01:05:58;9.98;;;5.03;;
45358;SDS011;31096;49.292;8.710;2022-11-20T01:10:51;11.43;;;5.97;;
45358;SDS011;31096;49.292;8.710;2022-11-20T01:15:42;11.98;;;6.30;;
45358;SDS011;31096;49.292;8.710;2022-11-20T01:20:35;11.73;;;5.73;;
45358;SDS011;31096;49.292;8.710;2022-11-20T01:25:26;10.17;;;5.50;;
45358;SDS011;31096;49.292;8.710;2022-11-20T01:30:17;11.82;;;6.72;;
45358;SDS011;31096;49.292;8.710;2022-11-20T01:35:08;12.60;;;5.93;;
45358;SDS011;31096;49.292;8.710;2022-11-20T01:39:59;12.05;;;5.75;;
45358;SDS011;31096;49.292;8.710;2022-11-20T01:44:55;12.13;;;5.90;;
45358;SDS011;31096;49.292;8.710;2022-11-20T01:49:50;12.67;;;6.27;;
45358;SDS011;31096;49.292;8.710;2022-11-20T01:54:48;10.65;;;5.63;;
45358;SDS011;31096;49.292;8.710;2022-11-20T01:59:44;12.50;;;6.80;;
45358;SDS011;31096;49.292;8.710;2022-11-20T02:04:50;11.03;;;5.50;;
45358;SDS011;31096;49.292;8.710;2022-11-20T02:09:44;12.15;;;5.93;;
45358;SDS011;31096;49.292;8.710;2022-11-20T02:14:35;12.00;;;5.90;;
45358;SDS011;31096;49.292;8.710;2022-11-20T02:19:26;14.57;;;6.30;;
45358;SDS011;31096;49.292;8.710;2022-11-20T02:24:21;13.38;;;7.90;;
45358;SDS011;31096;49.292;8.710;2022-11-20T02:29:13;12.23;;;6.47;;
45358;SDS011;31096;49.292;8.710;2022-11-20T02:34:16;14.07;;;6.20;;
45358;SDS011;31096;49.292;8.710;2022-11-20T02:39:07;14.17;;;6.77;;
45358;SDS011;31096;49.292;8.710;2022-11-20T02:43:59;18.30;;;7.18;;
45358;SDS011;31096;49.292;8.710;2022-11-20T02:48:50;15.77;;;7.00;;
45358;SDS011;31096;49.292;8.710;2022-11-20T02:53:41;15.02;;;7.07;;
45358;SDS011;31096;49.292;8.710;2022-11-20T02:58:32;14.87;;;7.20;;
45358;SDS011;31096;49.292;8.710;2022-11-20T03:03:22;15.60;;;6.83;;
45358;SDS011;31096;49.292;8.710;2022-11-20T03:08:13;17.45;;;7.90;;
45358;SDS011;31096;49.292;8.710;2022-11-20T03:13:03;16.60;;;7.50;;
45358;SDS011;31096;49.292;8.710;2022-11-20T03:17:54;16.70;;;7.40;;
45358;SDS011;31096;49.292;8.710;2022-11-20T03:22:45;16.95;;;8.38;;
45358;SDS011;31096;49.292;8.710;2022-11-20T03:27:36;14.63;;;7.10;;
45358;SDS011;31096;49.292;8.710;2022-11-20T03:32:26;16.93;;;7.80;;
45358;SDS011;31096;49.292;8.710;2022-11-20T03:37:17;16.85;;;8.00;;
45358;SDS011;31096;49.292;8.710;2022-11-20T03:42:08;15.38;;;8.00;;
45358;SDS011;31096;49.292;8.710;2022-11-20T03:47:19;18.27;;;8.07;;
45358;SDS011;31096;49.292;8.710;2022-11-20T03:52:09;16.45;;;8.25;;
45358;SDS011;31096;49.292;8.710;2022-11-20T03:57:00;17.10;;;8.00;;
45358;SDS011;31096;49.292;8.710;2022-11-20T04:01:51;17.50;;;7.83;;
45358;SDS011;31096;49.292;8.710;2022-11-20T04:06:41;16.97;;;7.90;;
45358;SDS011;31096;49.292;8.710;2022-11-20T04:11:33;16.37;;;7.90;;
45358;SDS011;31096;49.292;8.710;2022-11-20T04:16:29;15.73;;;7.63;;
45358;SDS011;31096;49.292;8.710;2022-11-20T04:21:21;14.73;;;7.75;;
45358;SDS011;31096;49.292;8.710;2022-11-20T04:26:12;11.17;;;5.47;;
45358;SDS011;31096;49.292;8.710;2022-11-20T04:31:22;12.85;;;6.72;;
45358;SDS011;31096;49.292;8.710;2022-11-20T04:36:24;14.30;;;7.77;;
45358;SDS011;31096;49.292;8.710;2022-11-20T04:41:17;14.60;;;6.72;;
45358;SDS011;31096;49.292;8.710;2022-11-20T04:46:10;18.23;;;8.63;;
45358;SDS011;31096;49.292;8.710;2022-11-20T04:51:02;13.07;;;6.57;;
45358;SDS011;31096;49.292;8.710;2022-11-20T04:55:58;16.90;;;7.37;;
45358;SDS011;31096;49.292;8.710;2022-11-20T05:01:09;13.57;;;6.38;;
45358;SDS011;31096;49.292;8.710;2022-11-20T05:06:02;14.50;;;7.20;;
45358;SDS011;31096;49.292;8.710;2022-11-20T05:11:05;13.30;;;5.50;;
45358;SDS011;31096;49.292;8.710;2022-11-20T05:16:02;15.20;;;7.38;;
45358;SDS011;31096;49.292;8.710;2022-11-20T05:20:58;12.23;;;6.13;;
45358;SDS011;31096;49.292;8.710;2022-11-20T05:25:51;13.70;;;7.07;;
45358;SDS011;31096;49.292;8.710;2022-11-20T05:30:45;11.80;;;6.27;;
45358;SDS011;31096;49.292;8.710;2022-11-20T05:35:36;14.82;;;7.28;;
45358;SDS011;31096;49.292;8.710;2022-11-20T05:40:27;17.03;;;7.57;;
45358;SDS011;31096;49.292;8.710;2022-11-20T05:45:17;12.87;;;6.77;;
45358;SDS011;31096;49.292;8.710;2022-11-20T05:50:08;13.50;;;7.03;;
45358;SDS011;31096;49.292;8.710;2022-11-20T05:54:59;12.57;;;6.37;;
45358;SDS011;31096;49.292;8.710;2022-11-20T05:59:50;13.32;;;6.53;;
45358;SDS011;31096;49.292;8.710;2022-11-20T06:04:40;14.15;;;6.55;;
45358;SDS011;31096;49.292;8.710;2022-11-20T06:09:31;14.37;;;7.30;;
45358;SDS011;31096;49.292;8.710;2022-11-20T06:14:22;12.77;;;6.57;;
45358;SDS011;31096;49.292;8.710;2022-11-20T06:19:12;11.95;;;6.25;;
45358;SDS011;31096;49.292;8.710;2022-11-20T06:24:03;12.53;;;6.23;;
45358;SDS011;31096;49.292;8.710;2022-11-20T06:28:54;13.40;;;6.45;;
45358;SDS011;31096;49.292;8.710;2022-11-20T06:33:46;11.50;;;6.03;;
45358;SDS011;31096;49.292;8.710;2022-11-20T06:38:37;12.50;;;6.13;;
45358;SDS011;31096;49.292;8.710;2022-11-20T06:43:28;11.65;;;6.30;;
45358;SDS011;31096;49.292;8.710;2022-11-20T06:48:19;12.05;;;6.43;;
45358;SDS011;31096;49.292;8.710;2022-11-20T06:53:10;12.85;;;6.30;;
45358;SDS011;31096;49.292;8.710;2022-11-20T06:58:01;14.00;;;6.03;;
45358;SDS011;31096;49.292;8.710;2022-11-20T07:02:52;12.17;;;5.77;;
45358;SDS011;31096;49.292;8.710;2022-11-20T07:07:42;10.60;;;5.60;;
45358;SDS011;31096;49.292;8.710;2022-11-20T07:12:33;12.32;;;6.75;;
45358;SDS011;31096;49.292;8.710;2022-11-20T07:17:23;11.17;;;5.63;;
45358;SDS011;31096;49.292;8.710;2022-11-20T07:22:14;10.47;;;6.03;;
45358;SDS011;31096;49.292;8.710;2022-11-20T07:27:05;11.10;;;5.50;;
45358;SDS011;31096;49.292;8.710;2022-11-20T07:31:55;9.65;;;5.38;;
45358;SDS011;31096;49.292;8.710;2022-11-20T07:36:46;9.17;;;5.23;;
45358;SDS011;31096;49.292;8.710;2022-11-20T07:41:37;9.23;;;4.67;;
45358;SDS011;31096;49.292;8.710;2022-11-20T07:46:27;9.73;;;4.63;;
45358;SDS011;31096;49.292;8.710;2022-11-20T07:51:19;8.30;;;4.00;;
45358;SDS011;31096;49.292;8.710;2022-11-20T07:56:10;7.63;;;3.87;;
45358;SDS011;31096;49.292;8.710;2022-11-20T08:01:07;7.57;;;3.80;;
45358;SDS011;31096;49.292;8.710;2022-11-20T08:05:58;7.45;;;4.05;;
45358;SDS011;31096;49.292;8.710;2022-11-20T08:10:50;7.15;;;4.25;;
45358;SDS011;31096;49.292;8.710;2022-11-20T08:15:41;8.90;;;4.43;;
45358;SDS011;31096;49.292;8.710;2022-11-20T08:20:38;8.10;;;4.63;;
45358;SDS011;31096;49.292;8.710;2022-11-20T08:25:29;7.47;;;4.23;;
45358;SDS011;31096;49.292;8.710;2022-11-20T08:30:20;8.05;;;4.50;;
45358;SDS011;31096;49.292;8.710;2022-11-20T08:35:11;9.27;;;4.20;;
45358;SDS011;31096;49.292;8.710;2022-11-20T08:40:01;6.43;;;4.10;;
45358;SDS011;31096;49.292;8.710;2022-11-20T08:44:52;7.18;;;4.18;;
45358;SDS011;31096;49.292;8.710;2022-11-20T08:49:43;7.30;;;4.30;;
45358;SDS011;31096;49.292;8.710;2022-11-20T08:54:33;7.80;;;4.00;;
45358;SDS011;31096;49.292;8.710;2022-11-20T08:59:24;8.48;;;4.15;;
45358;SDS011;31096;49.292;8.710;2022-11-20T09:04:15;8.53;;;4.30;;
45358;SDS011;31096;49.292;8.710;2022-11-20T09:09:05;5.93;;;3.47;;
45358;SDS011;31096;49.292;8.710;2022-11-20T09:13:56;7.63;;;4.20;;
45358;SDS011;31096;49.292;8.710;2022-11-20T09:18:49;7.00;;;4.15;;
45358;SDS011;31096;49.292;8.710;2022-11-20T09:23:40;7.67;;;4.03;;
45358;SDS011;31096;49.292;8.710;2022-11-20T09:28:31;7.78;;;3.28;;
45358;SDS011;31096;49.292;8.710;2022-11-20T09:33:22;7.07;;;3.63;;
45358;SDS011;31096;49.292;8.710;2022-11-20T09:38:12;7.03;;;3.70;;
45358;SDS011;31096;49.292;8.710;2022-11-20T09:58:24;8.60;;;4.43;;
45358;SDS011;31096;49.292;8.710;2022-11-20T10:14:16;6.57;;;3.17;;
45358;SDS011;31096;49.292;8.710;2022-11-20T10:24:41;6.85;;;3.63;;
45358;SDS011;31096;49.292;8.710;2022-11-20T10:29:43;7.50;;;3.45;;
45358;SDS011;31096;49.292;8.710;2022-11-20T10:34:44;5.78;;;3.20;;
45358;SDS011;31096;49.292;8.710;2022-11-20T10:45:21;5.37;;;3.17;;
45358;SDS011;31096;49.292;8.710;2022-11-20T10:51:31;5.03;;;2.67;;
45358;SDS011;31096;49.292;8.710;2022-11-20T11:01:39;5.30;;;3.00;;
45358;SDS011;31096;49.292;8.710;2022-11-20T11:06:37;4.90;;;2.53;;
45358;SDS011;31096;49.292;8.710;2022-11-20T11:11:37;5.65;;;3.30;;
45358;SDS011;31096;49.292;8.710;2022-11-20T11:16:28;6.35;;;3.30;;
45358;SDS011;31096;49.292;8.710;2022-11-20T11:21:22;5.03;;;2.77;;
45358;SDS011;31096;49.292;8.710;2022-11-20T11:26:22;6.03;;;3.25;;
45358;SDS011;31096;49.292;8.710;2022-11-20T11:31:22;5.40;;;2.75;;
45358;SDS011;31096;49.292;8.710;2022-11-20T11:36:21;5.17;;;3.10;;
45358;SDS011;31096;49.292;8.710;2022-11-20T11:41:16;6.50;;;2.70;;
45358;SDS011;31096;49.292;8.710;2022-11-20T11:51:10;4.80;;;2.70;;
45358;SDS011;31096;49.292;8.710;2022-11-20T11:56:08;5.65;;;2.80;;
45358;SDS011;31096;49.292;8.710;2022-11-20T12:01:04;5.73;;;3.00;;
45358;SDS011;31096;49.292;8.710;2022-11-20T12:06:30;4.82;;;2.67;;
45358;SDS011;31096;49.292;8.710;2022-11-20T12:11:37;5.35;;;3.20;;
45358;SDS011;31096;49.292;8.710;2022-11-20T12:16:49;5.13;;;2.87;;
45358;SDS011;31096;49.292;8.710;2022-11-20T12:43:24;6.70;;;3.13;;
45358;SDS011;31096;49.292;8.710;2022-11-20T12:48:38;7.60;;;3.03;;
45358;SDS011;31096;49.292;8.710;2022-11-20T12:59:16;5.22;;;2.60;;
45358;SDS011;31096;49.292;8.710;2022-11-20T13:09:57;4.80;;;2.23;;
45358;SDS011;31096;49.292;8.710;2022-11-20T13:14:52;5.05;;;2.22;;
45358;SDS011;31096;49.292;8.710;2022-11-20T13:19:56;6.43;;;2.40;;
45358;SDS011;31096;49.292;8.710;2022-11-20T13:24:50;5.50;;;2.13;;
45358;SDS011;31096;49.292;8.710;2022-11-20T13:29:43;7.05;;;2.60;;
45358;SDS011;31096;49.292;8.710;2022-11-20T13:34:37;5.83;;;2.70;;
45358;SDS011;31096;49.292;8.710;2022-11-20T13:39:29;6.53;;;3.10;;
45358;SDS011;31096;49.292;8.710;2022-11-20T13:44:27;7.43;;;2.15;;
45358;SDS011;31096;49.292;8.710;2022-11-20T13:54:28;6.25;;;2.30;;
45358;SDS011;31096;49.292;8.710;2022-11-20T14:05:17;4.80;;;2.40;;
45358;SDS011;31096;49.292;8.710;2022-11-20T14:10:25;4.90;;;2.17;;
45358;SDS011;31096;49.292;8.710;2022-11-20T14:15:28;4.60;;;1.88;;
45358;SDS011;31096;49.292;8.710;2022-11-20T14:20:22;4.40;;;1.90;;
45358;SDS011;31096;49.292;8.710;2022-11-20T14:25:20;5.85;;;2.30;;
45358;SDS011;31096;49.292;8.710;2022-11-20T14:30:14;4.40;;;2.15;;
45358;SDS011;31096;49.292;8.710;2022-11-20T14:35:14;6.25;;;2.22;;
45358;SDS011;31096;49.292;8.710;2022-11-20T14:40:29;5.45;;;2.40;;
45358;SDS011;31096;49.292;8.710;2022-11-20T14:45:26;4.50;;;2.30;;
45358;SDS011;31096;49.292;8.710;2022-11-20T14:50:27;7.47;;;2.08;;
45358;SDS011;31096;49.292;8.710;2022-11-20T14:55:26;4.82;;;1.70;;
45358;SDS011;31096;49.292;8.710;2022-11-20T15:00:29;7.73;;;1.90;;
45358;SDS011;31096;49.292;8.710;2022-11-20T15:05:23;3.63;;;1.73;;
45358;SDS011;31096;49.292;8.710;2022-11-20T15:10:36;6.63;;;2.55;;
45358;SDS011;31096;49.292;8.710;2022-11-20T15:15:43;4.03;;;2.25;;
45358;SDS011;31096;49.292;8.710;2022-11-20T15:20:40;4.50;;;2.20;;
45358;SDS011;31096;49.292;8.710;2022-11-20T15:25:31;6.63;;;1.97;;
45358;SDS011;31096;49.292;8.710;2022-11-20T15:30:22;7.85;;;2.70;;
45358;SDS011;31096;49.292;8.710;2022-11-20T15:35:14;6.53;;;2.63;;
45358;SDS011;31096;49.292;8.710;2022-11-20T15:40:05;5.72;;;2.35;;
45358;SDS011;31096;49.292;8.710;2022-11-20T15:44:57;5.10;;;2.13;;
45358;SDS011;31096;49.292;8.710;2022-11-20T15:49:48;6.33;;;2.20;;
45358;SDS011;31096;49.292;8.710;2022-11-20T15:54:38;5.73;;;2.50;;
45358;SDS011;31096;49.292;8.710;2022-11-20T15:59:29;6.03;;;2.60;;
45358;SDS011;31096;49.292;8.710;2022-11-20T16:04:20;7.63;;;2.87;;
45358;SDS011;31096;49.292;8.710;2022-11-20T16:09:11;5.77;;;2.10;;
45358;SDS011;31096;49.292;8.710;2022-11-20T16:14:02;6.07;;;2.50;;
45358;SDS011;31096;49.292;8.710;2022-11-20T16:19:12;6.65;;;3.00;;
45358;SDS011;31096;49.292;8.710;2022-11-20T16:24:04;5.38;;;3.08;;
45358;SDS011;31096;49.292;8.710;2022-11-20T16:28:57;8.57;;;3.40;;
45358;SDS011;31096;49.292;8.710;2022-11-20T16:33:53;6.40;;;2.70;;
45358;SDS011;31096;49.292;8.710;2022-11-20T16:38:55;4.75;;;2.38;;
45358;SDS011;31096;49.292;8.710;2022-11-20T16:43:48;5.30;;;2.05;;
45358;SDS011;31096;49.292;8.710;2022-11-20T16:48:42;7.60;;;2.57;;
45358;SDS011;31096;49.292;8.710;2022-11-20T16:53:32;6.63;;;2.33;;
45358;SDS011;31096;49.292;8.710;2022-11-20T16:58:23;7.30;;;2.30;;
45358;SDS011;31096;49.292;8.710;2022-11-20T17:03:14;5.40;;;2.30;;
45358;SDS011;31096;49.292;8.710;2022-11-20T17:08:06;7.28;;;3.17;;
45358;SDS011;31096;49.292;8.710;2022-11-20T17:12:57;5.33;;;2.50;;
45358;SDS011;31096;49.292;8.710;2022-11-20T17:17:48;6.13;;;2.55;;
45358;SDS011;31096;49.292;8.710;2022-11-20T17:22:38;4.10;;;2.30;;
45358;SDS011;31096;49.292;8.710;2022-11-20T17:27:29;4.80;;;2.50;;
45358;SDS011;31096;49.292;8.710;2022-11-20T17:32:20;5.38;;;2.83;;
45358;SDS011;31096;49.292;8.710;2022-11-20T17:37:10;7.47;;;2.83;;
45358;SDS011;31096;49.292;8.710;2022-11-20T17:42:01;6.80;;;2.80;;
45358;SDS011;31096;49.292;8.710;2022-11-20T17:47:11;3.90;;;1.63;;
45358;SDS011;31096;49.292;8.710;2022-11-20T17:52:02;4.75;;;2.28;;
45358;SDS011;31096;49.292;8.710;2022-11-20T17:56:53;3.93;;;1.90;;
45358;SDS011;31096;49.292;8.710;2022-11-20T18:02:02;5.25;;;2.25;;
45358;SDS011;31096;49.292;8.710;2022-11-20T18:06:53;4.10;;;2.20;;
45358;SDS011;31096;49.292;8.710;2022-11-20T18:11:44;5.75;;;2.00;;
45358;SDS011;31096;49.292;8.710;2022-11-20T18:16:36;4.37;;;1.97;;
45358;SDS011;31096;49.292;8.710;2022-11-20T18:21:31;6.63;;;2.60;;
45358;SDS011;31096;49.292;8.710;2022-11-20T18:26:23;5.68;;;2.80;;
45358;SDS011;31096;49.292;8.710;2022-11-20T18:31:14;6.85;;;2.85;;
45358;SDS011;31096;49.292;8.710;2022-11-20T18:36:12;7.10;;;2.83;;
45358;SDS011;31096;49.292;8.710;2022-11-20T18:41:08;5.95;;;2.50;;
45358;SDS011;31096;49.292;8.710;2022-11-20T18:46:19;6.33;;;2.67;;
45358;SDS011;31096;49.292;8.710;2022-11-20T18:51:10;4.22;;;2.40;;
45358;SDS011;31096;49.292;8.710;2022-11-20T18:56:05;6.10;;;2.58;;
45358;SDS011;31096;49.292;8.710;2022-11-20T19:01:05;5.72;;;2.08;;
45358;SDS011;31096;49.292;8.710;2022-11-20T19:05:56;6.65;;;2.55;;
45358;SDS011;31096;49.292;8.710;2022-11-20T19:10:47;6.33;;;2.50;;
45358;SDS011;31096;49.292;8.710;2022-11-20T19:15:38;5.23;;;2.80;;
45358;SDS011;31096;49.292;8.710;2022-11-20T19:20:29;5.53;;;2.88;;
45358;SDS011;31096;49.292;8.710;2022-11-20T19:25:20;6.05;;;2.50;;
45358;SDS011;31096;49.292;8.710;2022-11-20T19:30:11;5.30;;;2.20;;
45358;SDS011;31096;49.292;8.710;2022-11-20T19:35:03;5.43;;;2.30;;
45358;SDS011;31096;49.292;8.710;2022-11-20T19:39:54;6.40;;;2.60;;
45358;SDS011;31096;49.292;8.710;2022-11-20T19:44:48;3.92;;;1.75;;
45358;SDS011;31096;49.292;8.710;2022-11-20T19:49:39;5.27;;;1.70;;
45358;SDS011;31096;49.292;8.710;2022-11-20T19:54:30;4.20;;;1.70;;
45358;SDS011;31096;49.292;8.710;2022-11-20T19:59:21;5.73;;;2.23;;
45358;SDS011;31096;49.292;8.710;2022-11-20T20:04:12;5.97;;;2.05;;
45358;SDS011;31096;49.292;8.710;2022-11-20T20:14:01;5.20;;;2.37;;
45358;SDS011;31096;49.292;8.710;2022-11-20T20:18:54;4.70;;;2.40;;
45358;SDS011;31096;49.292;8.710;2022-11-20T20:23:51;4.60;;;2.07;;
45358;SDS011;31096;49.292;8.710;2022-11-20T20:28:43;4.30;;;2.25;;
45358;SDS011;31096;49.292;8.710;2022-11-20T20:33:38;4.93;;;2.13;;
45358;SDS011;31096;49.292;8.710;2022-11-20T20:38:30;4.32;;;2.00;;
45358;SDS011;31096;49.292;8.710;2022-11-20T20:43:21;6.80;;;2.13;;
45358;SDS011;31096;49.292;8.710;2022-11-20T20:48:11;5.65;;;2.38;;
45358;SDS011;31096;49.292;8.710;2022-11-20T20:53:03;3.97;;;2.22;;
45358;SDS011;31096;49.292;8.710;2022-11-20T20:57:54;3.70;;;1.90;;
45358;SDS011;31096;49.292;8.710;2022-11-20T21:02:45;4.07;;;2.10;;
45358;SDS011;31096;49.292;8.710;2022-11-20T21:07:36;4.13;;;2.10;;
45358;SDS011;31096;49.292;8.710;2022-11-20T21:12:46;5.23;;;2.27;;
45358;SDS011;31096;49.292;8.710;2022-11-20T21:17:37;3.70;;;1.75;;
45358;SDS011;31096;49.292;8.710;2022-11-20T21:22:33;4.10;;;2.03;;
45358;SDS011;31096;49.292;8.710;2022-11-20T21:27:23;4.80;;;1.92;;
45358;SDS011;31096;49.292;8.710;2022-11-20T21:32:14;4.45;;;1.83;;
45358;SDS011;31096;49.292;8.710;2022-11-20T21:37:05;4.27;;;2.17;;
45358;SDS011;31096;49.292;8.710;2022-11-20T21:41:55;3.77;;;1.77;;
45358;SDS011;31096;49.292;8.710;2022-11-20T21:46:46;6.70;;;2.05;;
45358;SDS011;31096;49.292;8.710;2022-11-20T21:51:37;5.07;;;2.00;;
45358;SDS011;31096;49.292;8.710;2022-11-20T21:56:28;3.85;;;1.90;;
45358;SDS011;31096;49.292;8.710;2022-11-20T22:01:23;4.67;;;1.80;;
45358;SDS011;31096;49.292;8.710;2022-11-20T22:06:15;4.38;;;2.00;;
45358;SDS011;31096;49.292;8.710;2022-11-20T22:11:07;5.67;;;2.20;;
45358;SDS011;31096;49.292;8.710;2022-11-20T22:16:01;4.43;;;2.22;;
45358;SDS011;31096;49.292;8.710;2022-11-20T22:20:51;3.40;;;1.70;;
45358;SDS011;31096;49.292;8.710;2022-11-20T22:25:42;5.43;;;1.90;;
45358;SDS011;31096;49.292;8.710;2022-11-20T22:30:33;4.77;;;1.70;;
45358;SDS011;31096;49.292;8.710;2022-11-20T22:35:24;5.33;;;1.97;;
45358;SDS011;31096;49.292;8.710;2022-11-20T22:40:14;4.68;;;1.85;;
45358;SDS011;31096;49.292;8.710;2022-11-20T22:45:05;3.65;;;1.58;;
45358;SDS011;31096;49.292;8.710;2022-11-20T22:49:57;5.97;;;1.90;;
45358;SDS011;31096;49.292;8.710;2022-11-20T22:54:47;3.83;;;1.80;;
45358;SDS011;31096;49.292;8.710;2022-11-20T22:59:38;3.65;;;1.45;;
45358;SDS011;31096;49.292;8.710;2022-11-20T23:04:30;5.33;;;1.77;;
45358;SDS011;31096;49.292;8.710;2022-11-20T23:09:21;4.20;;;2.22;;
45358;SDS011;31096;49.292;8.710;2022-11-20T23:14:12;3.50;;;1.70;;
45358;SDS011;31096;49.292;8.710;2022-11-20T23:19:05;3.67;;;1.63;;
45358;SDS011;31096;49.292;8.710;2022-11-20T23:23:59;4.35;;;1.20;;
45358;SDS011;31096;49.292;8.710;2022-11-20T23:28:51;4.25;;;1.70;;
45358;SDS011;31096;49.292;8.710;2022-11-20T23:33:43;6.37;;;1.80;;
45358;SDS011;31096;49.292;8.710;2022-11-20T23:38:35;4.65;;;1.65;;
45358;SDS011;31096;49.292;8.710;2022-11-20T23:43:26;5.18;;;2.10;;
45358;SDS011;31096;49.292;8.710;2022-11-20T23:48:18;4.05;;;1.83;;
45358;SDS011;31096;49.292;8.710;2022-11-20T23:53:10;5.43;;;1.95;;
45358;SDS011;31096;49.292;8.710;2022-11-20T23:58:03;5.57;;;2.00;;
